createdAt,value
2022-10-11T00:01:06.145Z,6.98
2022-10-11T00:05:11.955Z,6.93
2022-10-11T00:09:15.580Z,6.89
2022-10-11T00:13:17.387Z,6.86
2022-10-11T00:17:19.220Z,6.84
2022-10-11T00:21:21.321Z,6.77
2022-10-11T00:25:23.268Z,6.72
2022-10-11T00:29:25.177Z,6.67
2022-10-11T00:33:27.046Z,6.67
2022-10-11T00:37:28.920Z,6.70
2022-10-11T00:41:30.964Z,6.76
2022-10-11T00:45:35.515Z,6.79
2022-10-11T00:49:45.346Z,6.80
2022-10-11T00:53:50.381Z,6.79
2022-10-11T00:57:53.276Z,6.76
2022-10-11T01:01:55.346Z,6.78
2022-10-11T01:05:57.187Z,6.81
2022-10-11T01:09:59.136Z,6.83
2022-10-11T01:14:25.915Z,6.82
2022-10-11T01:18:40.437Z,6.85
2022-10-11T01:22:57.331Z,6.87
2022-10-11T01:27:30.597Z,6.87
2022-10-11T01:31:46.666Z,6.91
2022-10-11T01:35:51.618Z,6.96
2022-10-11T01:40:01.083Z,7.02
2022-10-11T01:44:05.033Z,7.08
2022-10-11T01:48:10.322Z,7.13
2022-10-11T01:52:12.572Z,7.14
2022-10-11T01:56:26.301Z,7.16
2022-10-11T02:00:40.236Z,7.21
2022-10-11T02:04:50.038Z,7.25
2022-10-11T02:09:04.354Z,7.24
2022-10-11T02:13:15.701Z,7.24
2022-10-11T02:17:22.405Z,7.19
2022-10-11T02:21:25.408Z,7.14
2022-10-11T02:25:29.813Z,7.11
2022-10-11T02:29:35.665Z,7.07
2022-10-11T02:33:44.538Z,7.03
2022-10-11T02:37:53.682Z,6.99
2022-10-11T02:41:59.562Z,6.94
2022-10-11T02:46:03.662Z,6.93
2022-10-11T02:50:06.282Z,6.93
2022-10-11T02:54:08.232Z,6.87
2022-10-11T02:58:10.075Z,6.81
2022-10-11T03:02:11.930Z,6.73
2022-10-11T03:06:13.834Z,6.71
2022-10-11T03:10:15.726Z,6.68
2022-10-11T03:14:17.641Z,6.65
2022-10-11T03:18:20.262Z,6.66
2022-10-11T03:22:22.160Z,6.63
2022-10-11T03:26:24.031Z,6.59
2022-10-11T03:30:26.125Z,6.54
2022-10-11T03:34:28.048Z,6.55
2022-10-11T03:38:29.905Z,6.61
2022-10-11T03:42:31.755Z,6.60
2022-10-11T03:46:33.666Z,6.62
2022-10-11T03:50:36.650Z,6.65
2022-10-11T03:54:38.503Z,6.71
2022-10-11T03:58:41.204Z,6.81
2022-10-11T04:02:43.236Z,6.85
2022-10-11T04:06:45.079Z,6.90
2022-10-11T04:10:48.114Z,6.94
2022-10-11T04:14:50.208Z,6.99
2022-10-11T04:18:52.056Z,7.05
2022-10-11T04:22:53.925Z,7.15
2022-10-11T04:26:56.073Z,7.27
2022-10-11T04:30:57.882Z,7.29
2022-10-11T04:34:59.856Z,7.29
2022-10-11T04:39:01.751Z,7.26
2022-10-11T04:43:03.750Z,7.28
2022-10-11T04:47:05.631Z,7.34
2022-10-11T04:51:08.299Z,7.42
2022-10-11T04:55:10.909Z,7.46
2022-10-11T04:59:12.805Z,7.46
2022-10-11T05:03:14.807Z,7.45
2022-10-11T05:07:16.845Z,7.48
2022-10-11T05:11:18.912Z,7.54
2022-10-11T05:15:20.724Z,7.53
2022-10-11T05:19:22.641Z,7.56
2022-10-11T05:23:24.666Z,7.57
2022-10-11T05:27:26.601Z,7.59
2022-10-11T05:31:28.673Z,7.69
2022-10-11T05:35:30.507Z,7.77
2022-10-11T05:39:32.414Z,7.85
2022-10-11T05:43:35.887Z,7.88
2022-10-11T05:47:37.877Z,7.93
2022-10-11T05:51:39.761Z,7.98
2022-10-11T05:55:42.974Z,8.03
2022-10-11T05:59:44.931Z,8.09
2022-10-11T06:03:47.610Z,8.09
2022-10-11T06:07:49.557Z,8.05
2022-10-11T06:11:51.453Z,8.10
2022-10-11T06:15:53.320Z,8.19
2022-10-11T06:19:55.489Z,8.25
2022-10-11T06:24:01.428Z,8.29
2022-10-11T06:28:03.987Z,8.33
2022-10-11T06:32:06.082Z,8.43
2022-10-11T06:36:13.697Z,8.56
2022-10-11T06:40:15.657Z,8.71
2022-10-11T06:44:17.628Z,8.79
2022-10-11T06:48:19.552Z,8.82
2022-10-11T06:52:21.620Z,8.85
2022-10-11T06:56:25.702Z,8.91
2022-10-11T07:00:27.697Z,9.02
2022-10-11T07:04:29.692Z,9.13
2022-10-11T07:08:32.543Z,9.18
2022-10-11T07:12:34.468Z,9.34
2022-10-11T07:16:37.385Z,9.61
2022-10-11T07:20:39.472Z,9.91
2022-10-11T07:24:43.017Z,10.26
2022-10-11T07:28:46.409Z,10.67
2022-10-11T07:32:48.319Z,11.00
2022-10-11T07:36:50.343Z,11.36
2022-10-11T07:40:52.485Z,11.75
2022-10-11T07:44:54.409Z,12.06
2022-10-11T07:48:56.536Z,12.30
2022-10-11T07:52:58.564Z,12.58
2022-10-11T07:57:00.522Z,12.85
2022-10-11T08:01:02.524Z,13.00
2022-10-11T08:05:04.962Z,13.15
2022-10-11T08:09:07.044Z,13.27
2022-10-11T08:13:08.911Z,13.23
2022-10-11T08:17:10.824Z,13.45
2022-10-11T08:21:16.136Z,13.66
2022-10-11T08:25:18.255Z,13.81
2022-10-11T08:29:20.201Z,13.79
2022-10-11T08:33:24.513Z,13.73
2022-10-11T08:37:26.462Z,13.76
2022-10-11T08:41:48.123Z,13.75
2022-10-11T08:45:54.729Z,13.79
2022-10-11T08:49:58.553Z,13.90
2022-10-11T08:54:07.951Z,14.07
2022-10-11T08:58:25.029Z,14.27
2022-10-11T09:03:10.568Z,14.41
2022-10-11T09:07:37.147Z,14.47
2022-10-11T09:12:00.653Z,14.48
2022-10-11T09:16:14.824Z,14.57
2022-10-11T09:20:28.710Z,14.50
2022-10-11T09:24:46.954Z,14.46
2022-10-11T09:29:03.358Z,14.47
2022-10-11T09:33:36.576Z,14.75
2022-10-11T09:37:44.020Z,14.98
2022-10-11T09:41:58.492Z,15.01
2022-10-11T09:46:00.449Z,15.13
2022-10-11T09:50:13.926Z,15.05
2022-10-11T09:54:19.225Z,14.87
2022-10-11T09:58:34.279Z,14.93
2022-10-11T10:02:47.026Z,15.15
2022-10-11T10:07:02.125Z,15.37
2022-10-11T10:11:06.708Z,15.43
2022-10-11T10:15:18.729Z,15.34
2022-10-11T10:19:21.481Z,15.30
2022-10-11T10:23:27.635Z,15.36
2022-10-11T10:27:31.371Z,15.27
2022-10-11T10:32:13.386Z,15.08
2022-10-11T10:36:27.081Z,14.99
2022-10-11T10:40:50.597Z,14.88
2022-10-11T10:44:56.464Z,14.89
2022-10-11T10:53:58.189Z,14.79
2022-10-11T10:58:06.788Z,14.78
2022-10-11T11:02:40.880Z,14.77
2022-10-11T11:06:57.663Z,14.86
2022-10-11T11:11:03.964Z,14.85
2022-10-11T11:15:27.182Z,14.87
2022-10-11T11:19:52.935Z,14.77
2022-10-11T11:24:30.358Z,14.64
2022-10-11T11:28:44.362Z,14.48
2022-10-11T11:33:18.248Z,14.31
2022-10-11T11:37:36.848Z,14.16
2022-10-11T11:41:53.385Z,14.17
2022-10-11T11:46:00.927Z,14.09
2022-10-11T11:50:21.872Z,14.13
2022-10-11T11:54:35.682Z,14.12
2022-10-11T11:58:43.510Z,14.08
2022-10-11T12:02:54.304Z,13.99
2022-10-11T12:07:15.805Z,14.05
2022-10-11T12:11:49.047Z,14.19
2022-10-11T12:16:03.442Z,14.12
2022-10-11T12:20:08.084Z,14.10
2022-10-11T12:24:09.985Z,14.05
2022-10-11T12:28:36.602Z,14.12
2022-10-11T12:32:39.022Z,14.36
2022-10-11T12:36:43.835Z,14.60
2022-10-11T12:40:47.640Z,14.73
2022-10-11T12:45:14.336Z,14.80
2022-10-11T12:49:37.405Z,14.76
2022-10-11T12:54:26.068Z,14.75
2022-10-11T12:58:37.834Z,14.95
2022-10-11T13:02:43.941Z,15.15
2022-10-11T13:06:49.406Z,15.19
2022-10-11T13:10:52.973Z,15.14
2022-10-11T13:15:06.679Z,15.13
2022-10-11T13:19:12.996Z,14.95
2022-10-11T13:23:38.497Z,14.88
2022-10-11T13:27:40.549Z,14.89
2022-10-11T13:31:45.621Z,14.84
2022-10-11T13:35:47.984Z,14.75
2022-10-11T13:39:55.357Z,14.59
2022-10-11T13:43:59.937Z,14.51
2022-10-11T13:48:02.137Z,14.35
2022-10-11T13:52:18.952Z,14.15
2022-10-11T13:56:20.893Z,14.04
2022-10-11T14:00:29.853Z,14.05
2022-10-11T14:04:40.919Z,14.11
2022-10-11T14:08:47.753Z,14.18
2022-10-11T14:13:05.092Z,14.21
2022-10-11T14:17:09.717Z,14.26
2022-10-11T14:21:34.190Z,14.27
2022-10-11T14:25:36.093Z,14.19
2022-10-11T14:29:45.651Z,14.13
2022-10-11T14:33:54.692Z,14.08
2022-10-11T14:37:57.625Z,14.04
2022-10-11T14:41:59.811Z,14.00
2022-10-11T14:46:01.830Z,13.94
2022-10-11T14:50:47.328Z,13.86
2022-10-11T14:54:49.205Z,13.79
2022-10-11T14:58:51.470Z,13.69
2022-10-11T15:02:54.043Z,13.60
2022-10-11T15:06:57.003Z,13.48
2022-10-11T15:11:03.206Z,13.33
2022-10-11T15:15:06.371Z,13.20
2022-10-11T15:19:16.120Z,13.07
2022-10-11T15:23:18.228Z,12.92
2022-10-11T15:27:24.912Z,12.80
2022-10-11T15:31:27.129Z,12.68
2022-10-11T15:35:29.568Z,12.57
2022-10-11T15:39:33.203Z,12.44
2022-10-11T15:43:35.127Z,12.30
2022-10-11T15:47:37.293Z,12.16
2022-10-11T15:51:39.692Z,12.00
2022-10-11T15:55:45.213Z,11.86
2022-10-11T15:59:47.265Z,11.75
2022-10-11T16:03:50.469Z,11.62
2022-10-11T16:07:53.754Z,11.40
2022-10-11T16:11:55.647Z,11.21
2022-10-11T16:16:00.652Z,11.04
2022-10-11T16:20:05.384Z,10.92
2022-10-11T16:24:08.521Z,10.82
2022-10-11T16:28:10.618Z,10.66
2022-10-11T16:32:12.536Z,10.50
2022-10-11T16:36:34.623Z,10.39
2022-10-11T16:40:38.468Z,10.34
2022-10-11T16:44:40.373Z,10.28
2022-10-11T16:48:42.271Z,10.23
2022-10-11T16:52:44.126Z,10.12
2022-10-11T16:56:46.853Z,9.88
2022-10-11T17:00:50.152Z,9.65
2022-10-11T17:04:53.640Z,9.46
2022-10-11T17:08:55.784Z,9.29
2022-10-11T17:12:57.655Z,9.18
2022-10-11T17:16:59.587Z,9.14
2022-10-11T17:21:06.711Z,9.17
2022-10-11T17:25:08.804Z,9.20
2022-10-11T17:29:15.761Z,9.21
2022-10-11T17:33:17.738Z,9.18
2022-10-11T17:37:20.203Z,9.13
2022-10-11T17:41:22.173Z,9.05
2022-10-11T17:45:24.062Z,9.00
2022-10-11T17:49:25.944Z,8.94
2022-10-11T17:53:28.011Z,8.87
2022-10-11T17:57:30.082Z,8.79
2022-10-11T18:01:32.450Z,8.65
2022-10-11T18:05:39.993Z,8.47
2022-10-11T18:09:42.322Z,8.32
2022-10-11T18:13:48.273Z,8.19
2022-10-11T18:17:50.672Z,8.08
2022-10-11T18:21:52.967Z,7.98
2022-10-11T18:25:55.980Z,7.93
2022-10-11T18:29:58.915Z,7.85
2022-10-11T18:34:03.317Z,7.78
2022-10-11T18:38:06.481Z,7.70
2022-10-11T18:42:09.377Z,7.61
2022-10-11T18:46:14.026Z,7.49
2022-10-11T18:50:17.048Z,7.32
2022-10-11T18:54:21.350Z,7.19
2022-10-11T18:58:23.846Z,7.08
2022-10-11T19:02:25.882Z,6.95
2022-10-11T19:06:31.484Z,6.85
2022-10-11T19:10:33.948Z,6.74
2022-10-11T19:14:36.107Z,6.57
2022-10-11T19:18:43.195Z,6.40
2022-10-11T19:22:46.068Z,6.34
2022-10-11T19:26:49.048Z,6.28
2022-10-11T19:30:50.911Z,6.19
2022-10-11T19:34:52.733Z,6.12
2022-10-11T19:38:56.256Z,6.05
2022-10-11T19:42:58.088Z,5.95
2022-10-11T19:47:05.301Z,5.88
2022-10-11T19:51:11.567Z,5.83
2022-10-11T19:55:13.520Z,5.81
2022-10-11T19:59:16.236Z,5.77
2022-10-11T20:03:21.234Z,5.73
2022-10-11T20:07:23.109Z,5.55
2022-10-11T20:11:25.372Z,5.47
2022-10-11T20:15:27.601Z,5.37
2022-10-11T20:19:31.246Z,5.30
2022-10-11T20:23:35.438Z,5.29
2022-10-11T20:27:37.558Z,5.20
2022-10-11T20:31:41.281Z,5.11
2022-10-11T20:35:43.358Z,5.00
2022-10-11T20:39:45.425Z,4.94
2022-10-11T20:43:49.949Z,4.85
2022-10-11T20:47:53.296Z,4.76
2022-10-11T20:51:55.281Z,4.71
2022-10-11T20:55:57.428Z,4.66
2022-10-11T20:59:59.567Z,4.63
2022-10-11T21:04:02.242Z,4.53
2022-10-11T21:08:04.494Z,4.45
2022-10-11T21:12:06.453Z,4.36
2022-10-11T21:16:13.189Z,4.29
2022-10-11T21:20:15.184Z,4.25
2022-10-11T21:24:17.519Z,4.30
2022-10-11T21:28:19.660Z,4.36
2022-10-11T21:32:21.495Z,4.27
2022-10-11T21:36:24.533Z,4.13
2022-10-11T21:40:26.372Z,4.05
2022-10-11T21:44:31.539Z,3.92
2022-10-11T21:48:33.354Z,3.86
2022-10-11T21:52:35.515Z,3.80
2022-10-11T21:56:37.650Z,3.74
2022-10-11T22:00:39.845Z,3.65
2022-10-11T22:04:41.745Z,3.58
2022-10-11T22:08:43.702Z,3.54
2022-10-11T22:12:45.596Z,3.53
2022-10-11T22:16:47.431Z,3.46
2022-10-11T22:20:49.350Z,3.44
2022-10-11T22:24:51.187Z,3.38
2022-10-11T22:28:53.359Z,3.35
2022-10-11T22:32:55.543Z,3.35
2022-10-11T22:36:57.380Z,3.36
2022-10-11T22:40:59.299Z,3.25
2022-10-11T22:45:01.205Z,3.13
2022-10-11T22:49:03.157Z,3.05
2022-10-11T22:53:06.112Z,3.06
2022-10-11T22:57:07.985Z,3.14
2022-10-11T23:01:13.059Z,3.14
2022-10-11T23:05:15.264Z,3.04
2022-10-11T23:09:17.058Z,2.90
2022-10-11T23:13:19.021Z,2.76
2022-10-11T23:17:20.940Z,2.69
2022-10-11T23:21:22.871Z,2.71
2022-10-11T23:25:24.748Z,2.79
2022-10-11T23:29:29.636Z,2.88
2022-10-11T23:33:31.458Z,2.87
2022-10-11T23:37:33.291Z,2.75
2022-10-11T23:41:35.139Z,2.73
2022-10-11T23:45:37.131Z,2.71
2022-10-11T23:49:39.015Z,2.64
2022-10-11T23:53:41.146Z,2.57
2022-10-11T23:57:43.121Z,2.49
